Impacts TAF Board INFO
FOR SITUATIONAL AWARENESS. NOT TO BE USED FOR FLIGHT PLANNING PURPOSES.
IDs:

KSLC - Salt Lake City Intl, UT, US

Issued at 0307 UTC 18 Dec 2017
Updated at 0449 UTC 18 Dec 2017
Potential Impact None Slight Moderate High
Time0354Z 18/05Z 18/06Z 18/07Z 18/08Z 18/09Z 18/10Z 18/11Z 18/12Z 18/13Z 18/14Z 18/15Z 18/16Z 18/17Z>>
Type OBS PRVL PRVL PRVL PRVL PRVL PRVL PRVL PRVL PRVL PRVL PRVL PRVL PRVL
VIS 10 >6 >6 >6 >6 >6 >6 >6 >6 >6 >6 >6 >6 >6
CIG -- 200 200 200 200 200 200 200 200 200 200 200 200 200
Cover SCT BKN BKN BKN BKN BKN BKN BKN BKN BKN BKN BKN BKN BKN
FltCat VFR VFR VFR VFR VFR VFR VFR VFR VFR VFR VFR VFR VFR VFR
WX -- -- -- -- -- -- -- -- -- -- -- -- -- --
WDir VRB 150 150 150 150 150 150 150 150 150 150 150 150 150
WSpd 0 5 5 5 5 5 5 5 5 5 5 5 5 5
WGst -- -- -- -- -- -- -- -- -- -- -- -- -- --

Raw TAF
KSLC 180307Z 1803/1906 15005KT P6SM SCT070 BKN200
  FM181900 32006KT P6SM SCT070 BKN200
  FM190300 17006KT P6SM SCT070 BKN200


Raw METAR
KSLC 180354Z 00000KT 10SM FEW070 SCT120 M01/M04 A3026 RMK AO2 SLP265 T10111044
KSLC 180254Z 00000KT 10SM FEW070 SCT120 M01/M04 A3025 RMK AO2 SLP261 T10111039 51008
KSLC 180154Z 00000KT 10SM FEW070 SCT150 M01/M04 A3024 RMK AO2 SLP256 T10111044

METAR Board
Radar Display
Forecast Discussion

FOR SITUATIONAL AWARENESS. NOT TO BE USED FOR FLIGHT PLANNING PURPOSES.